sensor_id;sensor_type;location;lat;lon;timestamp;pressure;altitude;pressure_sealevel;temperature;humidity
49194;BME280;35029;50.804;12.866;2023-06-10T00:02:08;97582.50;;;15.60;90.51
49194;BME280;35029;50.804;12.866;2023-06-10T00:04:34;97576.81;;;15.45;89.99
49194;BME280;35029;50.804;12.866;2023-06-10T00:07:03;97574.72;;;15.47;91.09
49194;BME280;35029;50.804;12.866;2023-06-10T00:09:29;97565.63;;;15.36;92.07
49194;BME280;35029;50.804;12.866;2023-06-10T00:11:55;97553.22;;;15.30;92.08
49194;BME280;35029;50.804;12.866;2023-06-10T00:14:20;97557.97;;;15.28;91.88
49194;BME280;35029;50.804;12.866;2023-06-10T00:16:46;97549.16;;;15.27;92.42
49194;BME280;35029;50.804;12.866;2023-06-10T00:19:11;97545.31;;;15.35;91.28
49194;BME280;35029;50.804;12.866;2023-06-10T00:21:39;97551.22;;;15.25;91.80
49194;BME280;35029;50.804;12.866;2023-06-10T00:24:09;97551.56;;;15.17;93.45
49194;BME280;35029;50.804;12.866;2023-06-10T00:26:38;97546.56;;;15.09;92.99
49194;BME280;35029;50.804;12.866;2023-06-10T00:29:04;97527.50;;;15.05;93.02
49194;BME280;35029;50.804;12.866;2023-06-10T00:31:31;97520.56;;;15.04;92.94
49194;BME280;35029;50.804;12.866;2023-06-10T00:33:57;97549.94;;;15.16;94.10
49194;BME280;35029;50.804;12.866;2023-06-10T00:36:24;97554.22;;;15.17;94.11
49194;BME280;35029;50.804;12.866;2023-06-10T00:38:49;97563.41;;;15.21;93.50
49194;BME280;35029;50.804;12.866;2023-06-10T00:41:15;97557.59;;;15.12;93.98
49194;BME280;35029;50.804;12.866;2023-06-10T00:43:40;97568.63;;;15.16;93.79
49194;BME280;35029;50.804;12.866;2023-06-10T00:46:07;97581.44;;;15.26;93.03
49194;BME280;35029;50.804;12.866;2023-06-10T00:48:33;97579.19;;;15.23;93.10
49194;BME280;35029;50.804;12.866;2023-06-10T00:50:59;97572.03;;;15.23;92.57
49194;BME280;35029;50.804;12.866;2023-06-10T00:53:26;97574.41;;;15.13;93.30
49194;BME280;35029;50.804;12.866;2023-06-10T00:55:52;97561.72;;;14.96;92.87
49194;BME280;35029;50.804;12.866;2023-06-10T00:58:18;97557.78;;;14.99;94.06
49194;BME280;35029;50.804;12.866;2023-06-10T01:00:43;97577.69;;;15.15;93.77
49194;BME280;35029;50.804;12.866;2023-06-10T01:03:10;97549.09;;;15.03;92.20
49194;BME280;35029;50.804;12.866;2023-06-10T01:05:38;97566.75;;;15.04;93.04
49194;BME280;35029;50.804;12.866;2023-06-10T01:08:10;97570.09;;;15.00;92.55
49194;BME280;35029;50.804;12.866;2023-06-10T01:13:07;97568.75;;;14.79;93.36
49194;BME280;35029;50.804;12.866;2023-06-10T01:15:37;97552.88;;;14.53;93.96
49194;BME280;35029;50.804;12.866;2023-06-10T01:18:09;97571.97;;;14.69;94.70
49194;BME280;35029;50.804;12.866;2023-06-10T01:20:36;97565.81;;;14.68;94.61
49194;BME280;35029;50.804;12.866;2023-06-10T01:23:06;97546.56;;;14.48;94.88
49194;BME280;35029;50.804;12.866;2023-06-10T01:25:32;97570.09;;;14.69;95.36
49194;BME280;35029;50.804;12.866;2023-06-10T01:33:43;97568.59;;;14.74;93.89
49194;BME280;35029;50.804;12.866;2023-06-10T01:36:08;97542.69;;;14.62;94.59
49194;BME280;35029;50.804;12.866;2023-06-10T01:38:46;97567.44;;;14.69;94.20
49194;BME280;35029;50.804;12.866;2023-06-10T01:41:16;97556.19;;;14.49;94.16
49194;BME280;35029;50.804;12.866;2023-06-10T01:43:44;97565.81;;;14.50;96.42
49194;BME280;35029;50.804;12.866;2023-06-10T01:46:10;97582.44;;;14.52;95.79
49194;BME280;35029;50.804;12.866;2023-06-10T01:48:37;97580.66;;;14.46;95.84
49194;BME280;35029;50.804;12.866;2023-06-10T01:51:03;97582.34;;;14.40;93.77
49194;BME280;35029;50.804;12.866;2023-06-10T01:53:28;97593.91;;;14.34;94.54
49194;BME280;35029;50.804;12.866;2023-06-10T01:55:54;97591.00;;;14.35;95.71
49194;BME280;35029;50.804;12.866;2023-06-10T01:58:19;97592.19;;;14.40;95.56
49194;BME280;35029;50.804;12.866;2023-06-10T02:00:45;97575.78;;;14.24;96.00
49194;BME280;35029;50.804;12.866;2023-06-10T02:03:10;97596.34;;;14.35;96.69
49194;BME280;35029;50.804;12.866;2023-06-10T02:05:36;97609.84;;;14.41;96.38
49194;BME280;35029;50.804;12.866;2023-06-10T02:08:02;97592.00;;;14.23;95.95
49194;BME280;35029;50.804;12.866;2023-06-10T02:10:27;97613.63;;;14.33;95.93
49194;BME280;35029;50.804;12.866;2023-06-10T02:12:53;97621.81;;;14.31;95.72
49194;BME280;35029;50.804;12.866;2023-06-10T02:15:19;97596.88;;;14.26;95.85
49194;BME280;35029;50.804;12.866;2023-06-10T02:17:46;97619.59;;;14.28;96.33
49194;BME280;35029;50.804;12.866;2023-06-10T02:20:11;97605.22;;;14.11;96.20
49194;BME280;35029;50.804;12.866;2023-06-10T02:22:40;97593.91;;;13.97;96.47
49194;BME280;35029;50.804;12.866;2023-06-10T02:25:07;97643.16;;;14.13;95.75
49194;BME280;35029;50.804;12.866;2023-06-10T02:27:33;97635.00;;;14.08;97.00
49194;BME280;35029;50.804;12.866;2023-06-10T02:30:00;97639.16;;;14.03;95.75
49194;BME280;35029;50.804;12.866;2023-06-10T02:32:26;97632.56;;;14.06;96.41
49194;BME280;35029;50.804;12.866;2023-06-10T02:34:52;97639.09;;;14.10;96.28
49194;BME280;35029;50.804;12.866;2023-06-10T02:37:20;97611.16;;;13.94;96.32
49194;BME280;35029;50.804;12.866;2023-06-10T02:39:46;97627.56;;;13.91;97.43
49194;BME280;35029;50.804;12.866;2023-06-10T02:42:12;97635.28;;;13.99;97.58
49194;BME280;35029;50.804;12.866;2023-06-10T02:44:37;97618.97;;;13.89;97.45
49194;BME280;35029;50.804;12.866;2023-06-10T02:47:04;97643.13;;;13.94;97.82
49194;BME280;35029;50.804;12.866;2023-06-10T02:49:32;97623.06;;;13.92;98.03
49194;BME280;35029;50.804;12.866;2023-06-10T02:51:58;97639.88;;;13.92;97.39
49194;BME280;35029;50.804;12.866;2023-06-10T02:54:24;97636.59;;;13.90;98.06
49194;BME280;35029;50.804;12.866;2023-06-10T02:56:52;97630.75;;;14.00;99.32
49194;BME280;35029;50.804;12.866;2023-06-10T02:59:22;97613.44;;;13.91;98.97
49194;BME280;35029;50.804;12.866;2023-06-10T03:01:47;97630.28;;;14.10;98.73
49194;BME280;35029;50.804;12.866;2023-06-10T03:04:13;97593.63;;;13.86;99.94
49194;BME280;35029;50.804;12.866;2023-06-10T03:06:44;97625.06;;;14.15;99.76
49194;BME280;35029;50.804;12.866;2023-06-10T03:09:17;97624.72;;;14.30;99.28
49194;BME280;35029;50.804;12.866;2023-06-10T03:11:46;97613.69;;;14.26;98.57
49194;BME280;35029;50.804;12.866;2023-06-10T03:14:11;97628.88;;;14.26;99.48
49194;BME280;35029;50.804;12.866;2023-06-10T03:16:37;97624.72;;;14.30;100.00
49194;BME280;35029;50.804;12.866;2023-06-10T03:19:06;97616.13;;;14.28;100.00
49194;BME280;35029;50.804;12.866;2023-06-10T03:21:34;97637.09;;;14.43;100.00
49194;BME280;35029;50.804;12.866;2023-06-10T03:24:00;97631.47;;;14.51;100.00
49194;BME280;35029;50.804;12.866;2023-06-10T03:26:26;97636.56;;;14.52;100.00
49194;BME280;35029;50.804;12.866;2023-06-10T03:28:53;97620.19;;;14.49;100.00
49194;BME280;35029;50.804;12.866;2023-06-10T03:31:21;97640.72;;;14.67;100.00
49194;BME280;35029;50.804;12.866;2023-06-10T03:33:47;97648.44;;;14.75;100.00
49194;BME280;35029;50.804;12.866;2023-06-10T03:36:13;97654.84;;;14.86;100.00
49194;BME280;35029;50.804;12.866;2023-06-10T03:38:38;97652.34;;;14.91;100.00
49194;BME280;35029;50.804;12.866;2023-06-10T03:41:06;97646.53;;;14.94;100.00
49194;BME280;35029;50.804;12.866;2023-06-10T03:43:32;97652.63;;;15.01;100.00
49194;BME280;35029;50.804;12.866;2023-06-10T03:45:58;97657.88;;;15.08;100.00
49194;BME280;35029;50.804;12.866;2023-06-10T03:48:24;97635.47;;;15.09;100.00
49194;BME280;35029;50.804;12.866;2023-06-10T03:50:52;97657.69;;;15.21;100.00
49194;BME280;35029;50.804;12.866;2023-06-10T03:53:19;97625.59;;;15.10;100.00
49194;BME280;35029;50.804;12.866;2023-06-10T03:55:45;97656.78;;;15.28;100.00
49194;BME280;35029;50.804;12.866;2023-06-10T03:58:11;97641.31;;;15.18;100.00
49194;BME280;35029;50.804;12.866;2023-06-10T04:00:38;97659.81;;;15.31;100.00
49194;BME280;35029;50.804;12.866;2023-06-10T04:03:09;97657.56;;;15.28;100.00
49194;BME280;35029;50.804;12.866;2023-06-10T04:05:43;97652.38;;;15.33;100.00
49194;BME280;35029;50.804;12.866;2023-06-10T04:08:09;97659.56;;;15.33;100.00
49194;BME280;35029;50.804;12.866;2023-06-10T04:10:35;97662.91;;;15.28;100.00
49194;BME280;35029;50.804;12.866;2023-06-10T04:13:01;97651.53;;;15.21;100.00
49194;BME280;35029;50.804;12.866;2023-06-10T04:15:31;97652.84;;;15.30;100.00
49194;BME280;35029;50.804;12.866;2023-06-10T04:18:00;97633.88;;;15.20;100.00
49194;BME280;35029;50.804;12.866;2023-06-10T04:20:28;97657.72;;;15.33;100.00
49194;BME280;35029;50.804;12.866;2023-06-10T04:22:54;97653.78;;;15.36;100.00
49194;BME280;35029;50.804;12.866;2023-06-10T04:25:20;97647.50;;;15.30;100.00
49194;BME280;35029;50.804;12.866;2023-06-10T04:27:48;97635.78;;;15.31;100.00
49194;BME280;35029;50.804;12.866;2023-06-10T04:30:16;97641.59;;;15.40;100.00
49194;BME280;35029;50.804;12.866;2023-06-10T04:32:43;97643.00;;;15.43;100.00
49194;BME280;35029;50.804;12.866;2023-06-10T04:35:14;97662.66;;;15.60;100.00
49194;BME280;35029;50.804;12.866;2023-06-10T04:37:40;97662.78;;;15.65;100.00
49194;BME280;35029;50.804;12.866;2023-06-10T04:40:08;97635.56;;;15.57;100.00
49194;BME280;35029;50.804;12.866;2023-06-10T04:42:35;97661.06;;;15.71;100.00
49194;BME280;35029;50.804;12.866;2023-06-10T04:45:00;97652.19;;;15.70;100.00
49194;BME280;35029;50.804;12.866;2023-06-10T04:47:27;97652.81;;;15.72;100.00
49194;BME280;35029;50.804;12.866;2023-06-10T04:49:52;97638.28;;;15.68;100.00
49194;BME280;35029;50.804;12.866;2023-06-10T04:52:18;97650.97;;;15.85;100.00
49194;BME280;35029;50.804;12.866;2023-06-10T04:54:44;97660.53;;;15.93;100.00
49194;BME280;35029;50.804;12.866;2023-06-10T04:57:09;97652.59;;;15.98;100.00
49194;BME280;35029;50.804;12.866;2023-06-10T04:59:37;97645.41;;;15.98;100.00
49194;BME280;35029;50.804;12.866;2023-06-10T05:02:06;97634.25;;;16.01;100.00
49194;BME280;35029;50.804;12.866;2023-06-10T05:04:32;97652.94;;;16.25;100.00
49194;BME280;35029;50.804;12.866;2023-06-10T05:06:58;97656.81;;;16.29;100.00
49194;BME280;35029;50.804;12.866;2023-06-10T05:09:23;97659.47;;;16.29;100.00
49194;BME280;35029;50.804;12.866;2023-06-10T05:11:49;97657.97;;;16.33;100.00
49194;BME280;35029;50.804;12.866;2023-06-10T05:14:15;97668.97;;;16.37;100.00
49194;BME280;35029;50.804;12.866;2023-06-10T05:16:44;97667.00;;;16.44;100.00
49194;BME280;35029;50.804;12.866;2023-06-10T05:19:10;97666.50;;;16.59;100.00
49194;BME280;35029;50.804;12.866;2023-06-10T05:21:35;97669.63;;;16.68;100.00
49194;BME280;35029;50.804;12.866;2023-06-10T05:24:01;97665.19;;;16.73;100.00
49194;BME280;35029;50.804;12.866;2023-06-10T05:26:27;97656.25;;;16.68;100.00
49194;BME280;35029;50.804;12.866;2023-06-10T05:28:54;97670.19;;;16.82;100.00
49194;BME280;35029;50.804;12.866;2023-06-10T05:31:19;97645.31;;;16.69;100.00
49194;BME280;35029;50.804;12.866;2023-06-10T05:33:45;97671.09;;;16.99;100.00
49194;BME280;35029;50.804;12.866;2023-06-10T05:36:10;97667.22;;;17.07;100.00
49194;BME280;35029;50.804;12.866;2023-06-10T05:38:37;97642.19;;;17.01;100.00
49194;BME280;35029;50.804;12.866;2023-06-10T05:41:02;97669.59;;;17.20;100.00
49194;BME280;35029;50.804;12.866;2023-06-10T05:43:29;97677.41;;;17.22;99.33
49194;BME280;35029;50.804;12.866;2023-06-10T05:45:54;97653.97;;;17.29;98.28
49194;BME280;35029;50.804;12.866;2023-06-10T05:48:20;97654.72;;;17.42;98.33
49194;BME280;35029;50.804;12.866;2023-06-10T05:50:45;97657.38;;;17.58;98.33
49194;BME280;35029;50.804;12.866;2023-06-10T05:53:14;97664.13;;;17.61;98.12
49194;BME280;35029;50.804;12.866;2023-06-10T05:55:44;97665.22;;;17.60;98.91
49194;BME280;35029;50.804;12.866;2023-06-10T05:58:10;97662.59;;;17.65;99.13
49194;BME280;35029;50.804;12.866;2023-06-10T06:00:38;97663.03;;;17.74;98.59
49194;BME280;35029;50.804;12.866;2023-06-10T06:03:08;97667.97;;;17.82;98.49
49194;BME280;35029;50.804;12.866;2023-06-10T06:05:35;97665.28;;;17.82;97.97
49194;BME280;35029;50.804;12.866;2023-06-10T06:08:04;97669.78;;;17.94;97.77
49194;BME280;35029;50.804;12.866;2023-06-10T06:10:30;97674.22;;;18.05;96.60
49194;BME280;35029;50.804;12.866;2023-06-10T06:12:55;97646.03;;;18.02;95.63
49194;BME280;35029;50.804;12.866;2023-06-10T06:15:21;97675.59;;;18.24;95.06
49194;BME280;35029;50.804;12.866;2023-06-10T06:17:47;97674.94;;;18.34;93.67
49194;BME280;35029;50.804;12.866;2023-06-10T06:20:12;97659.34;;;18.31;93.51
49194;BME280;35029;50.804;12.866;2023-06-10T06:22:39;97660.09;;;18.49;89.34
49194;BME280;35029;50.804;12.866;2023-06-10T06:25:05;97671.22;;;18.57;88.82
49194;BME280;35029;50.804;12.866;2023-06-10T06:27:31;97684.53;;;18.69;89.94
49194;BME280;35029;50.804;12.866;2023-06-10T06:29:57;97685.22;;;18.82;87.87
49194;BME280;35029;50.804;12.866;2023-06-10T06:32:22;97692.59;;;18.91;87.78
49194;BME280;35029;50.804;12.866;2023-06-10T06:34:50;97689.22;;;19.01;87.98
49194;BME280;35029;50.804;12.866;2023-06-10T06:37:23;97687.66;;;19.05;86.08
49194;BME280;35029;50.804;12.866;2023-06-10T06:39:53;97689.34;;;19.12;85.14
49194;BME280;35029;50.804;12.866;2023-06-10T06:42:20;97672.91;;;19.08;85.84
49194;BME280;35029;50.804;12.866;2023-06-10T06:45:06;97698.44;;;19.33;84.83
49194;BME280;35029;50.804;12.866;2023-06-10T06:47:32;97698.56;;;19.48;84.09
49194;BME280;35029;50.804;12.866;2023-06-10T06:49:57;97698.69;;;19.58;83.24
49194;BME280;35029;50.804;12.866;2023-06-10T06:52:23;97680.47;;;19.38;82.06
49194;BME280;35029;50.804;12.866;2023-06-10T06:54:49;97708.19;;;19.71;82.87
49194;BME280;35029;50.804;12.866;2023-06-10T06:57:15;97710.94;;;19.76;84.28
49194;BME280;35029;50.804;12.866;2023-06-10T06:59:41;97711.84;;;19.87;83.47
49194;BME280;35029;50.804;12.866;2023-06-10T07:02:06;97714.97;;;20.06;83.67
49194;BME280;35029;50.804;12.866;2023-06-10T07:04:32;97715.06;;;20.17;83.89
49194;BME280;35029;50.804;12.866;2023-06-10T07:06:57;97716.97;;;20.21;82.07
49194;BME280;35029;50.804;12.866;2023-06-10T07:09:23;97697.84;;;20.23;82.28
49194;BME280;35029;50.804;12.866;2023-06-10T07:11:49;97704.06;;;20.23;82.51
49194;BME280;35029;50.804;12.866;2023-06-10T07:14:14;97704.13;;;20.34;82.05
49194;BME280;35029;50.804;12.866;2023-06-10T07:16:40;97720.63;;;20.48;82.05
49194;BME280;35029;50.804;12.866;2023-06-10T07:19:06;97718.78;;;20.53;81.54
49194;BME280;35029;50.804;12.866;2023-06-10T07:21:32;97698.59;;;20.51;82.78
49194;BME280;35029;50.804;12.866;2023-06-10T07:23:59;97716.50;;;20.72;82.62
49194;BME280;35029;50.804;12.866;2023-06-10T07:26:25;97707.31;;;20.73;80.87
49194;BME280;35029;50.804;12.866;2023-06-10T07:28:52;97711.16;;;20.83;80.29
49194;BME280;35029;50.804;12.866;2023-06-10T07:31:17;97716.31;;;20.94;80.69
49194;BME280;35029;50.804;12.866;2023-06-10T07:33:43;97714.75;;;21.04;81.69
49194;BME280;35029;50.804;12.866;2023-06-10T07:36:09;97708.03;;;21.11;81.64
49194;BME280;35029;50.804;12.866;2023-06-10T07:38:35;97712.63;;;21.16;80.49
49194;BME280;35029;50.804;12.866;2023-06-10T07:41:00;97710.75;;;21.17;81.96
49194;BME280;35029;50.804;12.866;2023-06-10T07:43:26;97715.09;;;21.23;80.32
49194;BME280;35029;50.804;12.866;2023-06-10T07:45:52;97713.22;;;21.34;81.12
49194;BME280;35029;50.804;12.866;2023-06-10T07:48:17;97715.66;;;21.51;80.32
49194;BME280;35029;50.804;12.866;2023-06-10T07:50:43;97711.41;;;21.65;79.59
49194;BME280;35029;50.804;12.866;2023-06-10T07:53:09;97717.88;;;21.74;75.40
49194;BME280;35029;50.804;12.866;2023-06-10T07:55:34;97714.41;;;21.79;74.82
49194;BME280;35029;50.804;12.866;2023-06-10T07:58:00;97718.16;;;21.93;76.02
49194;BME280;35029;50.804;12.866;2023-06-10T08:00:26;97707.09;;;22.00;76.38
49194;BME280;35029;50.804;12.866;2023-06-10T08:02:51;97699.56;;;22.02;75.06
49194;BME280;35029;50.804;12.866;2023-06-10T08:05:17;97706.56;;;22.19;76.71
49194;BME280;35029;50.804;12.866;2023-06-10T08:07:43;97696.28;;;22.21;76.33
49194;BME280;35029;50.804;12.866;2023-06-10T08:10:09;97711.94;;;22.34;72.11
49194;BME280;35029;50.804;12.866;2023-06-10T08:12:35;97710.88;;;22.04;74.74
49194;BME280;35029;50.804;12.866;2023-06-10T08:15:02;97709.25;;;22.19;73.92
49194;BME280;35029;50.804;12.866;2023-06-10T08:17:30;97709.78;;;22.26;71.77
49194;BME280;35029;50.804;12.866;2023-06-10T08:19:55;97711.94;;;22.34;73.41
49194;BME280;35029;50.804;12.866;2023-06-10T08:24:47;97717.38;;;22.03;68.50
49194;BME280;35029;50.804;12.866;2023-06-10T08:27:12;97722.19;;;21.91;70.74
49194;BME280;35029;50.804;12.866;2023-06-10T08:29:39;97714.34;;;21.64;72.48
49194;BME280;35029;50.804;12.866;2023-06-10T08:32:05;97729.22;;;21.61;72.83
49194;BME280;35029;50.804;12.866;2023-06-10T08:34:34;97736.97;;;21.52;72.39
49194;BME280;35029;50.804;12.866;2023-06-10T08:37:01;97733.00;;;21.65;74.85
49194;BME280;35029;50.804;12.866;2023-06-10T08:39:26;97721.41;;;21.75;76.59
49194;BME280;35029;50.804;12.866;2023-06-10T08:42:25;97732.47;;;22.04;74.15
49194;BME280;35029;50.804;12.866;2023-06-10T08:44:55;97732.19;;;22.21;74.13
49194;BME280;35029;50.804;12.866;2023-06-10T08:47:23;97728.16;;;22.34;73.38
49194;BME280;35029;50.804;12.866;2023-06-10T08:49:49;97731.38;;;22.41;72.83
49194;BME280;35029;50.804;12.866;2023-06-10T08:52:17;97733.56;;;22.44;71.87
49194;BME280;35029;50.804;12.866;2023-06-10T08:54:49;97731.81;;;22.79;70.75
49194;BME280;35029;50.804;12.866;2023-06-10T08:57:18;97743.16;;;22.87;70.21
49194;BME280;35029;50.804;12.866;2023-06-10T08:59:46;97745.94;;;22.66;69.90
49194;BME280;35029;50.804;12.866;2023-06-10T09:02:12;97731.13;;;22.22;68.20
49194;BME280;35029;50.804;12.866;2023-06-10T09:04:39;97743.28;;;22.40;69.71
49194;BME280;35029;50.804;12.866;2023-06-10T09:07:05;97740.75;;;22.85;71.10
49194;BME280;35029;50.804;12.866;2023-06-10T09:09:32;97709.66;;;22.88;68.66
49194;BME280;35029;50.804;12.866;2023-06-10T09:12:00;97740.00;;;23.35;69.36
49194;BME280;35029;50.804;12.866;2023-06-10T09:14:25;97720.59;;;23.27;66.08
49194;BME280;35029;50.804;12.866;2023-06-10T09:16:51;97738.50;;;23.03;67.23
49194;BME280;35029;50.804;12.866;2023-06-10T09:19:17;97739.97;;;22.64;66.30
49194;BME280;35029;50.804;12.866;2023-06-10T09:21:42;97738.94;;;22.34;67.68
49194;BME280;35029;50.804;12.866;2023-06-10T09:24:08;97735.41;;;22.28;68.50
49194;BME280;35029;50.804;12.866;2023-06-10T09:26:34;97712.50;;;22.10;70.69
49194;BME280;35029;50.804;12.866;2023-06-10T09:29:07;97744.06;;;22.20;69.39
49194;BME280;35029;50.804;12.866;2023-06-10T09:31:40;97742.72;;;22.12;70.49
49194;BME280;35029;50.804;12.866;2023-06-10T09:34:13;97733.81;;;21.91;68.56
49194;BME280;35029;50.804;12.866;2023-06-10T09:36:40;97740.81;;;22.54;69.43
49194;BME280;35029;50.804;12.866;2023-06-10T09:39:13;97740.38;;;23.07;63.85
49194;BME280;35029;50.804;12.866;2023-06-10T09:41:41;97746.25;;;23.75;65.31
49194;BME280;35029;50.804;12.866;2023-06-10T09:44:14;97751.59;;;23.85;60.22
49194;BME280;35029;50.804;12.866;2023-06-10T09:46:41;97756.81;;;23.32;57.90
49194;BME280;35029;50.804;12.866;2023-06-10T09:49:07;97755.31;;;22.89;57.87
49194;BME280;35029;50.804;12.866;2023-06-10T09:51:33;97747.22;;;22.89;61.27
49194;BME280;35029;50.804;12.866;2023-06-10T09:53:59;97750.19;;;22.88;59.21
49194;BME280;35029;50.804;12.866;2023-06-10T09:56:38;97766.47;;;22.57;59.30
49194;BME280;35029;50.804;12.866;2023-06-10T09:59:08;97758.94;;;22.23;61.06
49194;BME280;35029;50.804;12.866;2023-06-10T10:01:34;97765.88;;;22.75;59.06
49194;BME280;35029;50.804;12.866;2023-06-10T10:04:00;97745.28;;;23.00;60.65
49194;BME280;35029;50.804;12.866;2023-06-10T10:06:27;97758.47;;;23.17;60.98
49194;BME280;35029;50.804;12.866;2023-06-10T10:08:53;97756.28;;;23.74;62.08
49194;BME280;35029;50.804;12.866;2023-06-10T10:11:21;97761.50;;;24.05;61.27
49194;BME280;35029;50.804;12.866;2023-06-10T10:13:51;97750.91;;;23.64;59.18
49194;BME280;35029;50.804;12.866;2023-06-10T10:16:30;97754.47;;;23.59;58.56
49194;BME280;35029;50.804;12.866;2023-06-10T10:19:08;97758.25;;;23.63;59.01
49194;BME280;35029;50.804;12.866;2023-06-10T10:21:39;97762.03;;;23.62;58.15
49194;BME280;35029;50.804;12.866;2023-06-10T10:24:56;97773.34;;;23.09;58.42
49194;BME280;35029;50.804;12.866;2023-06-10T10:27:55;97777.22;;;22.83;62.20
49194;BME280;35029;50.804;12.866;2023-06-10T10:30:22;97759.41;;;22.71;62.59
49194;BME280;35029;50.804;12.866;2023-06-10T10:33:05;97767.00;;;22.59;62.31
49194;BME280;35029;50.804;12.866;2023-06-10T10:35:33;97750.50;;;22.60;64.46
49194;BME280;35029;50.804;12.866;2023-06-10T10:37:58;97762.94;;;22.77;64.85
49194;BME280;35029;50.804;12.866;2023-06-10T10:40:26;97748.03;;;22.85;66.91
49194;BME280;35029;50.804;12.866;2023-06-10T10:42:56;97770.44;;;22.95;66.55
49194;BME280;35029;50.804;12.866;2023-06-10T10:45:21;97767.66;;;23.16;64.30
49194;BME280;35029;50.804;12.866;2023-06-10T10:47:52;97757.00;;;23.45;64.38
49194;BME280;35029;50.804;12.866;2023-06-10T10:50:20;97759.31;;;23.62;60.21
49194;BME280;35029;50.804;12.866;2023-06-10T10:52:53;97757.03;;;23.85;59.50
49194;BME280;35029;50.804;12.866;2023-06-10T10:55:20;97764.16;;;24.10;60.94
49194;BME280;35029;50.804;12.866;2023-06-10T10:57:53;97743.47;;;23.45;59.65
49194;BME280;35029;50.804;12.866;2023-06-10T11:00:30;97745.47;;;23.24;62.97
49194;BME280;35029;50.804;12.866;2023-06-10T11:08:05;97754.97;;;23.11;64.82
49194;BME280;35029;50.804;12.866;2023-06-10T11:10:39;97757.59;;;23.32;66.12
49194;BME280;35029;50.804;12.866;2023-06-10T11:13:09;97756.69;;;23.52;65.11
49194;BME280;35029;50.804;12.866;2023-06-10T11:15:49;97752.75;;;23.29;63.50
49194;BME280;35029;50.804;12.866;2023-06-10T11:18:34;97750.34;;;23.22;64.37
49194;BME280;35029;50.804;12.866;2023-06-10T11:21:04;97738.47;;;23.23;65.14
49194;BME280;35029;50.804;12.866;2023-06-10T11:23:32;97749.16;;;23.44;65.37
49194;BME280;35029;50.804;12.866;2023-06-10T11:28:41;97743.41;;;23.95;60.13
49194;BME280;35029;50.804;12.866;2023-06-10T11:31:13;97731.66;;;24.93;57.18
49194;BME280;35029;50.804;12.866;2023-06-10T11:33:44;97737.13;;;25.75;57.29
49194;BME280;35029;50.804;12.866;2023-06-10T11:36:09;97740.41;;;25.91;55.09
49194;BME280;35029;50.804;12.866;2023-06-10T11:38:35;97722.34;;;26.00;52.89
49194;BME280;35029;50.804;12.866;2023-06-10T11:41:02;97713.19;;;26.29;51.17
49194;BME280;35029;50.804;12.866;2023-06-10T11:43:27;97712.81;;;26.49;53.21
49194;BME280;35029;50.804;12.866;2023-06-10T11:45:54;97727.84;;;26.75;52.52
49194;BME280;35029;50.804;12.866;2023-06-10T11:48:21;97710.84;;;26.83;49.60
49194;BME280;35029;50.804;12.866;2023-06-10T11:50:47;97719.09;;;26.17;48.55
49194;BME280;35029;50.804;12.866;2023-06-10T11:53:12;97724.16;;;25.72;50.98
49194;BME280;35029;50.804;12.866;2023-06-10T11:55:48;97709.22;;;26.07;49.82
49194;BME280;35029;50.804;12.866;2023-06-10T11:58:23;97711.19;;;26.35;49.48
49194;BME280;35029;50.804;12.866;2023-06-10T12:00:50;97707.69;;;26.62;50.53
49194;BME280;35029;50.804;12.866;2023-06-10T12:03:17;97690.84;;;25.99;48.42
49194;BME280;35029;50.804;12.866;2023-06-10T12:06:00;97707.81;;;25.39;49.37
49194;BME280;35029;50.804;12.866;2023-06-10T12:08:27;97704.44;;;25.47;50.25
49194;BME280;35029;50.804;12.866;2023-06-10T12:10:53;97695.03;;;26.10;49.58
49194;BME280;35029;50.804;12.866;2023-06-10T12:13:20;97694.06;;;26.34;48.39
49194;BME280;35029;50.804;12.866;2023-06-10T12:15:46;97689.47;;;26.76;50.53
49194;BME280;35029;50.804;12.866;2023-06-10T12:18:22;97679.19;;;26.59;45.70
49194;BME280;35029;50.804;12.866;2023-06-10T12:20:48;97655.00;;;26.99;49.35
49194;BME280;35029;50.804;12.866;2023-06-10T12:23:18;97681.94;;;27.38;47.43
49194;BME280;35029;50.804;12.866;2023-06-10T12:25:54;97682.56;;;26.70;44.33
49194;BME280;35029;50.804;12.866;2023-06-10T12:28:24;97670.91;;;27.20;45.73
49194;BME280;35029;50.804;12.866;2023-06-10T12:30:51;97646.06;;;27.36;47.86
49194;BME280;35029;50.804;12.866;2023-06-10T12:33:20;97663.97;;;27.14;44.00
49194;BME280;35029;50.804;12.866;2023-06-10T12:35:50;97675.50;;;27.47;45.38
49194;BME280;35029;50.804;12.866;2023-06-10T12:38:25;97658.75;;;27.54;41.12
49194;BME280;35029;50.804;12.866;2023-06-10T12:40:54;97645.78;;;27.37;41.19
49194;BME280;35029;50.804;12.866;2023-06-10T12:43:26;97660.72;;;27.62;40.71
49194;BME280;35029;50.804;12.866;2023-06-10T12:45:52;97635.09;;;27.41;42.38
49194;BME280;35029;50.804;12.866;2023-06-10T12:48:22;97655.91;;;27.91;44.34
49194;BME280;35029;50.804;12.866;2023-06-10T12:50:55;97651.41;;;28.09;42.51
49194;BME280;35029;50.804;12.866;2023-06-10T12:53:22;97655.88;;;28.05;42.00
49194;BME280;35029;50.804;12.866;2023-06-10T12:55:54;97669.28;;;28.24;42.73
49194;BME280;35029;50.804;12.866;2023-06-10T12:58:20;97648.44;;;27.96;42.38
49194;BME280;35029;50.804;12.866;2023-06-10T13:00:47;97664.13;;;28.22;44.26
49194;BME280;35029;50.804;12.866;2023-06-10T13:03:14;97668.56;;;28.41;43.83
49194;BME280;35029;50.804;12.866;2023-06-10T13:05:40;97673.03;;;28.05;40.80
49194;BME280;35029;50.804;12.866;2023-06-10T13:08:07;97674.25;;;28.30;41.96
49194;BME280;35029;50.804;12.866;2023-06-10T13:10:33;97675.75;;;28.37;41.36